Andesborg — PCLC — position and weather

sailwx.info

Track history (hours):
 
Tides and Currents Weather Stations Pressure Air Temp Water Temp Dewpoint Dewpoint Depression Visibility Wind Speed Wind Dir Waves Ship Positions

Andesborg

Last reported at 2017-Apr-26 06:18 UTC. Time now 2017-Apr-30 07:06 UTC.
Position N 49°44' W 003°38'.

Length 142 m; draft 6.2 m.

Type: Ship. MMSI: 246797000.

Date/timePositionNaut miles runAvg speedWind from/ knotsBaromVisibWave heightAir tempDewpointWater temp
2017-Apr-26 06:18N 49°44' W 003°38'412.5
2017-Apr-26 06:01N 49°46' W 003°33'612.4
2017-Apr-26 05:30N 49°50' W 003°25'612.6
2017-Apr-26 05:00N 49°54' W 003°18'612.6
2017-Apr-26 04:30N 49°56' W 003°09'713.1
2017-Apr-26 04:00N 49°58' W 002°59'713.9
2017-Apr-26 03:30N 50°01' W 002°49'8916.2
2017-Apr-25 22:00N 50°26' W 000°36'612.3
2017-Apr-25 21:29N 50°28' W 000°26'612.3
2017-Apr-25 20:58N 50°29' W 000°17'511.7
2017-Apr-25 20:30N 50°30' W 000°08'611.7
2017-Apr-25 20:00N 50°31' E 000°01'611.8
2017-Apr-25 19:30N 50°33' E 000°10'612.1
2017-Apr-25 19:00N 50°34' E 000°19'612.8
2017-Apr-25 18:30N 50°36' E 000°28'713.6
2017-Apr-25 18:00N 50°39' E 000°38'714.8
2017-Apr-25 17:30N 50°43' E 000°48'1015.6
2017-Apr-25 16:51N 50°49' E 001°01'615.7
2017-Apr-25 16:30N 50°53' E 001°08'815.6
2017-Apr-25 16:00N 50°58' E 001°16'815.3
2017-Apr-25 15:30N 51°03' E 001°25'815.2
2017-Apr-25 15:00N 51°08' E 001°35'714.0
2017-Apr-25 14:30N 51°12' E 001°43'1313.2
2017-Apr-25 13:30N 51°24' E 001°54'612.6
2017-Apr-25 13:00N 51°29' E 001°60'712.6
2017-Apr-25 12:29N 51°34' E 002°07'712.8
2017-Apr-25 11:56N 51°39' E 002°15'11014.0
2017-Apr-25 04:06N 53°03' E 004°11'111.7
2017-Apr-25 04:01N 53°03' E 004°13'1011.5
2017-Apr-25 03:09N 53°10' E 004°25'211.6
2017-Apr-25 02:59N 53°12' E 004°26'14012.9
2017-Apr-24 16:10N 54°01' E 008°07'214.6
2017-Apr-24 16:00N 54°01' E 008°11'714.3
2017-Apr-24 15:30N 53°59' E 008°23'817.0
2017-Apr-24 15:00N 53°57' E 008°37'917.1
2017-Apr-24 14:31N 53°51' E 008°46'1414.4
2017-Apr-24 13:30N 53°53' E 009°11'611.9
2017-Apr-24 13:00N 53°51' E 009°20'713.3
2017-Apr-24 12:30N 53°45' E 009°25'612.6
2017-Apr-24 12:00N 53°39' E 009°31'612.7
2017-Apr-24 11:30N 53°35' E 009°38'510.7
2017-Apr-24 11:00N 53°34' E 009°47'4 7.7
2017-Apr-24 10:30N 53°33' E 009°53'4 7.7
2017-Apr-24 10:00N 53°32' E 009°59'0 0.2
2017-Apr-24 09:29N 53°32' E 009°59'0 0.0
2017-Apr-24 08:59N 53°32' E 009°59'0 0.0
2017-Apr-24 08:29N 53°32' E 009°59'0 0.0
2017-Apr-24 07:59N 53°32' E 009°59'0 0.0
2017-Apr-24 07:29N 53°32' E 009°59'0 0.0
2017-Apr-24 06:59N 53°32' E 009°59'0 0.0
2017-Apr-24 06:29N 53°32' E 009°59'0 0.0
2017-Apr-24 05:59N 53°32' E 009°59'0 0.0
2017-Apr-24 05:29N 53°32' E 009°59'0 0.0
2017-Apr-24 04:59N 53°32' E 009°59'0 0.0
2017-Apr-24 04:29N 53°32' E 009°59'0 0.0
2017-Apr-24 03:59N 53°32' E 009°59'0 0.0
2017-Apr-24 03:29N 53°32' E 009°59'0 0.0
2017-Apr-24 02:59N 53°32' E 009°59'0 0.0
2017-Apr-24 02:29N 53°32' E 009°59'0 0.0
2017-Apr-24 01:59N 53°32' E 009°59'0 0.0
2017-Apr-24 01:29N 53°32' E 009°59'0 0.0
2017-Apr-24 00:59N 53°32' E 009°59'0 0.0
2017-Apr-24 00:29N 53°32' E 009°59'0 0.0
2017-Apr-23 23:59N 53°32' E 009°59'0 0.0
2017-Apr-23 23:29N 53°32' E 009°59'0 0.0
2017-Apr-23 22:59N 53°32' E 009°59'0 0.0
2017-Apr-23 22:29N 53°32' E 009°59'0 0.0
2017-Apr-23 21:59N 53°32' E 009°59'0 0.0
2017-Apr-23 21:29N 53°32' E 009°59'0 0.0
2017-Apr-23 20:59N 53°32' E 009°59'0 0.0
2017-Apr-23 20:29N 53°32' E 009°59'0 0.0
2017-Apr-23 19:59N 53°32' E 009°59'0 0.0
2017-Apr-23 19:29N 53°32' E 009°59'0 0.0
2017-Apr-23 18:59N 53°32' E 009°59'0 0.0
2017-Apr-23 18:29N 53°32' E 009°59'0 0.0
2017-Apr-23 17:59N 53°32' E 009°59'0 0.0
2017-Apr-23 17:29N 53°32' E 009°59'0 0.0
2017-Apr-23 16:59N 53°32' E 009°59'0 0.0
2017-Apr-23 16:29N 53°32' E 009°59'0 0.0
2017-Apr-23 16:00N 53°32' E 009°59'2 4.1
2017-Apr-23 15:31N 53°32' E 009°56'3 6.0
2017-Apr-23 15:00N 53°30' E 009°59'1 0.6
2017-Apr-23 14:01N 53°29' E 009°59'0 0.0
2017-Apr-23 13:31N 53°29' E 009°59'0 0.0
2017-Apr-23 12:58N 53°29' E 009°59'0 0.0
2017-Apr-23 12:28N 53°29' E 009°59'0 0.0
2017-Apr-23 11:58N 53°29' E 009°59'0 0.0
2017-Apr-23 11:28N 53°29' E 009°59'0 0.0
2017-Apr-23 10:58N 53°29' E 009°59'0 0.0
2017-Apr-23 10:28N 53°29' E 009°59'0 0.0
2017-Apr-23 09:58N 53°29' E 009°59'0 0.0
2017-Apr-23 09:28N 53°29' E 009°59'0 0.0
2017-Apr-23 08:58N 53°29' E 009°59'0 0.0
2017-Apr-23 08:28N 53°29' E 009°59'0 0.0
2017-Apr-23 07:55N 53°29' E 009°59'0 0.0
2017-Apr-23 07:31N 53°29' E 009°59'0 0.0
2017-Apr-23 06:58N 53°29' E 009°59'0 0.0
2017-Apr-23 06:31N 53°29' E 009°59'0 0.0
2017-Apr-23 05:58N 53°29' E 009°59'0 0.0
2017-Apr-23 05:28N 53°29' E 009°59'0 0.0
2017-Apr-23 05:01N 53°29' E 009°59'0 0.0
2017-Apr-23 04:28N 53°29' E 009°59'0 0.0
2017-Apr-23 04:01N 53°29' E 009°59'0 0.0
2017-Apr-23 03:28N 53°29' E 009°59'0 0.0
2017-Apr-23 03:00N 53°29' E 009°59'1 2.1
2017-Apr-23 02:30N 53°30' E 009°58'3 6.1
2017-Apr-23 02:00N 53°32' E 009°55'5 9.3
2017-Apr-23 01:30N 53°33' E 009°47'612.9
2017-Apr-23 01:01N 53°35' E 009°37'713.4
2017-Apr-23 00:31N 53°41' E 009°30'714.1
2017-Apr-23 00:00N 53°47' E 009°23'714.7
2017-Apr-22 23:30N 53°52' E 009°16'4 8.6
2017-Apr-22 23:00N 53°54' E 009°09'0 0.0
2017-Apr-22 22:30N 53°54' E 009°09'1 2.0
2017-Apr-22 22:01N 53°54' E 009°10'3 6.2
2017-Apr-22 21:30N 53°57' E 009°14'2 4.7
2017-Apr-22 21:00N 53°58' E 009°16'4 7.7
2017-Apr-22 20:30N 54°02' E 009°18'7 7.8
2017-Apr-22 19:39N 54°09' E 009°21'1 5.1
2017-Apr-22 19:27N 54°09' E 009°22'3 7.3
2017-Apr-22 19:00N 54°11' E 009°27'39 4.9
2017-Apr-22 11:07N 54°32' E 010°22'2 4.2
2017-Apr-22 10:43N 54°33' E 010°25'0 1.6
2017-Apr-22 10:27N 54°33' E 010°24'2 3.5
2017-Apr-22 09:59N 54°33' E 010°27'2 3.5
2017-Apr-22 09:30N 54°34' E 010°30'2 3.5
2017-Apr-22 09:00N 54°34' E 010°33'2 3.9
2017-Apr-22 08:30N 54°35' E 010°36'3 5.1
2017-Apr-22 08:01N 54°35' E 010°40'4 7.3
2017-Apr-22 07:30N 54°35' E 010°47'611.4
2017-Apr-22 07:01N 54°36' E 010°57'611.9
2017-Apr-22 06:31N 54°36' E 011°07'611.8
2017-Apr-22 06:00N 54°34' E 011°17'611.3
2017-Apr-22 05:30N 54°32' E 011°25'611.5
2017-Apr-22 05:00N 54°30' E 011°34'1111.3
2017-Apr-22 04:01N 54°26' E 011°53'011.6
2017-Apr-22 04:00N 54°26' E 011°53'611.6
2017-Apr-22 03:30N 54°27' E 012°03'510.6
2017-Apr-22 03:00N 54°29' E 012°11'713.3
2017-Apr-22 02:30N 54°36' E 012°14'612.0
2017-Apr-22 02:01N 54°40' E 012°21'4812.1
2017-Apr-21 22:01N 54°60' E 013°38'112.8
2017-Apr-21 21:58N 55°00' E 013°39'612.7
2017-Apr-21 21:27N 55°03' E 013°49'511.8
2017-Apr-21 21:01N 55°03' E 013°58'612.1
2017-Apr-21 20:30N 55°06' E 014°08'612.8
2017-Apr-21 20:00N 55°11' E 014°14'713.0
2017-Apr-21 19:30N 55°16' E 014°21'713.6
2017-Apr-21 19:00N 55°22' E 014°28'713.5
2017-Apr-21 18:31N 55°27' E 014°36'713.0
2017-Apr-21 18:00N 55°30' E 014°46'713.4
2017-Apr-21 17:30N 55°33' E 014°56'713.3
2017-Apr-21 17:00N 55°36' E 015°07'713.4
2017-Apr-21 16:30N 55°40' E 015°17'19112.6
2017-Apr-21 01:26N 58°36' E 017°31'511.6
2017-Apr-21 01:00N 58°37' E 017°22'714.9
2017-Apr-21 00:30N 58°38' E 017°08'815.3
2017-Apr-21 00:00N 58°36' E 016°54'815.1
2017-Apr-20 23:31N 58°38' E 016°39'612.1
2017-Apr-20 23:01N 58°39' E 016°28'612.3
2017-Apr-20 22:30N 58°37' E 016°17'1 1.8
2017-Apr-20 21:59N 58°37' E 016°15'0 0.0
2017-Apr-20 21:29N 58°37' E 016°15'0 0.0
2017-Apr-20 20:59N 58°37' E 016°15'0 0.0
2017-Apr-20 20:29N 58°37' E 016°15'0 0.0
2017-Apr-20 19:59N 58°37' E 016°15'0 0.0
2017-Apr-20 19:29N 58°37' E 016°15'0 0.0
2017-Apr-20 18:59N 58°37' E 016°15'0 0.0
2017-Apr-20 18:29N 58°37' E 016°15'0 0.0
2017-Apr-20 17:59N 58°37' E 016°15'0 0.0
2017-Apr-20 17:29N 58°37' E 016°15'0 0.0
2017-Apr-20 16:59N 58°37' E 016°15'0 0.0
2017-Apr-20 16:29N 58°37' E 016°15'0 0.0
2017-Apr-20 15:59N 58°37' E 016°15'0 0.0
2017-Apr-20 15:29N 58°37' E 016°15'0 0.0
2017-Apr-20 14:59N 58°37' E 016°15'0 0.0
2017-Apr-20 14:29N 58°37' E 016°15'0 0.0
2017-Apr-20 13:29N 58°37' E 016°15'0 0.0
2017-Apr-20 12:59N 58°37' E 016°15'0 0.0
2017-Apr-20 12:29N 58°37' E 016°15'0 0.0
2017-Apr-20 11:59N 58°37' E 016°15'0 0.0
2017-Apr-20 11:29N 58°37' E 016°15'0 0.0
2017-Apr-20 10:58N 58°37' E 016°15'0 0.0
2017-Apr-20 10:30N 58°37' E 016°15'0 0.0
2017-Apr-20 10:00N 58°37' E 016°15'0 0.0
2017-Apr-20 09:29N 58°37' E 016°15'0 0.0
2017-Apr-20 08:59N 58°37' E 016°15'0 0.0
2017-Apr-20 08:29N 58°37' E 016°15'0 0.0
2017-Apr-20 07:59N 58°37' E 016°15'0 0.0
2017-Apr-20 07:29N 58°37' E 016°15'0 0.0
2017-Apr-20 06:59N 58°37' E 016°15'0 0.0
2017-Apr-20 06:29N 58°37' E 016°15'0 0.0
2017-Apr-20 05:59N 58°37' E 016°15'0 0.0
2017-Apr-20 05:29N 58°37' E 016°15'0 0.0
2017-Apr-20 04:59N 58°37' E 016°15'0 0.0
2017-Apr-20 04:29N 58°37' E 016°15'0 0.0
2017-Apr-20 03:59N 58°37' E 016°15'0 0.0
2017-Apr-20 03:28N 58°37' E 016°15'0 0.0
2017-Apr-20 02:58N 58°37' E 016°15'0 0.0
2017-Apr-20 02:28N 58°37' E 016°15'0 0.0
2017-Apr-20 01:58N 58°37' E 016°15'0 0.0
2017-Apr-20 01:28N 58°37' E 016°15'0 0.0
2017-Apr-20 00:58N 58°37' E 016°15'0 0.0
2017-Apr-20 00:28N 58°37' E 016°15'0 0.0
2017-Apr-19 23:58N 58°37' E 016°15'0 0.0
2017-Apr-19 23:28N 58°37' E 016°15'0 0.0
2017-Apr-19 22:58N 58°37' E 016°15'0 0.0
2017-Apr-19 22:28N 58°37' E 016°15'0 0.0
2017-Apr-19 22:00N 58°37' E 016°15'0 0.0
2017-Apr-19 21:30N 58°37' E 016°15'0 0.0
2017-Apr-19 20:59N 58°37' E 016°15'0 0.0
2017-Apr-19 20:31N 58°37' E 016°15'0 0.0
2017-Apr-19 20:00N 58°37' E 016°15'0 0.0
2017-Apr-19 19:30N 58°37' E 016°15'0 0.0
2017-Apr-19 19:00N 58°37' E 016°15'0 0.0
2017-Apr-19 18:30N 58°37' E 016°15'0 0.0
2017-Apr-19 18:00N 58°37' E 016°15'0 0.0
2017-Apr-19 17:29N 58°37' E 016°15'0 0.0
2017-Apr-19 16:59N 58°37' E 016°15'0 0.0
2017-Apr-19 16:29N 58°37' E 016°15'0 0.0
2017-Apr-19 15:59N 58°37' E 016°15'0 0.0
2017-Apr-19 15:29N 58°37' E 016°15'0 0.0
2017-Apr-19 14:59N 58°37' E 016°15'0 0.0
2017-Apr-19 14:29N 58°37' E 016°15'0 0.0
2017-Apr-19 13:25N 58°37' E 016°15'0 0.0
2017-Apr-19 12:58N 58°37' E 016°15'0 0.0
2017-Apr-19 12:28N 58°37' E 016°15'0 0.0
2017-Apr-19 11:58N 58°37' E 016°15'0 0.0
2017-Apr-19 11:28N 58°37' E 016°15'0 0.0
2017-Apr-19 10:58N 58°37' E 016°15'0 0.0
2017-Apr-19 10:28N 58°37' E 016°15'0 0.0
2017-Apr-19 09:58N 58°37' E 016°15'0 0.0
2017-Apr-19 09:28N 58°37' E 016°15'0 0.0
2017-Apr-19 08:58N 58°37' E 016°15'0 0.0
2017-Apr-19 08:28N 58°37' E 016°15'0 0.0
2017-Apr-19 07:57N 58°37' E 016°15'0 0.0
2017-Apr-19 07:30N 58°37' E 016°15'0 0.0
2017-Apr-19 07:00N 58°37' E 016°15'0 0.0
2017-Apr-19 06:30N 58°37' E 016°15'0 0.0
2017-Apr-19 06:00N 58°37' E 016°15'0 0.0
2017-Apr-19 05:30N 58°37' E 016°15'0 0.0
2017-Apr-19 05:00N 58°37' E 016°15'0 0.0
2017-Apr-19 04:30N 58°37' E 016°15'0 0.0
2017-Apr-19 04:00N 58°37' E 016°15'0 0.0
2017-Apr-19 03:29N 58°37' E 016°15'0 0.0
2017-Apr-19 02:59N 58°37' E 016°15'0 0.0
2017-Apr-19 02:29N 58°37' E 016°15'0 0.0
2017-Apr-19 01:59N 58°37' E 016°15'0 0.0
2017-Apr-19 01:29N 58°37' E 016°15'0 0.0
2017-Apr-19 00:59N 58°37' E 016°15'0 0.0
2017-Apr-19 00:29N 58°37' E 016°15'0 0.0
2017-Apr-18 23:59N 58°37' E 016°15'0 0.0
2017-Apr-18 23:29N 58°37' E 016°15'0 0.0
2017-Apr-18 22:59N 58°37' E 016°15'0 0.0
2017-Apr-18 22:30N 58°37' E 016°15'0 0.0
2017-Apr-18 21:58N 58°37' E 016°15'0 0.0
2017-Apr-18 21:28N 58°37' E 016°15'0 0.0
2017-Apr-18 20:58N 58°37' E 016°15'0 0.0
2017-Apr-18 20:28N 58°37' E 016°15'0 0.0
2017-Apr-18 19:58N 58°37' E 016°15'0 0.0
2017-Apr-18 19:28N 58°37' E 016°15'0 0.0
2017-Apr-18 18:58N 58°37' E 016°15'0 0.0
2017-Apr-18 18:28N 58°37' E 016°15'0 0.0
2017-Apr-18 17:58N 58°37' E 016°15'0 0.0
2017-Apr-18 17:28N 58°37' E 016°15'0 0.0
2017-Apr-18 16:58N 58°37' E 016°15'0 0.0
2017-Apr-18 16:28N 58°37' E 016°15'0 0.0
2017-Apr-18 15:58N 58°37' E 016°15'0 0.0
2017-Apr-18 15:28N 58°37' E 016°15'0 0.0
2017-Apr-18 15:00N 58°37' E 016°15'0 0.0
2017-Apr-18 14:30N 58°37' E 016°15'0 0.0
2017-Apr-18 13:30N 58°37' E 016°15'0 0.0
2017-Apr-18 12:59N 58°37' E 016°15'0 0.0
2017-Apr-18 12:29N 58°37' E 016°15'0 0.0
2017-Apr-18 11:59N 58°37' E 016°15'0 0.0
2017-Apr-18 11:29N 58°37' E 016°15'0 0.0
2017-Apr-18 10:59N 58°37' E 016°15'0 0.0
2017-Apr-18 10:29N 58°37' E 016°15'0 0.0
2017-Apr-18 09:59N 58°37' E 016°15'0 0.0
2017-Apr-18 09:29N 58°37' E 016°15'0 0.0
2017-Apr-18 08:59N 58°37' E 016°15'0 0.0
2017-Apr-18 08:29N 58°37' E 016°15'0 0.0
2017-Apr-18 07:59N 58°37' E 016°15'0 0.0
2017-Apr-18 07:29N 58°37' E 016°15'0 0.0
2017-Apr-18 06:59N 58°37' E 016°15'0 0.0
2017-Apr-18 06:29N 58°37' E 016°15'0 0.0
2017-Apr-18 05:59N 58°37' E 016°15'0 0.0
2017-Apr-18 05:23N 58°37' E 016°15'0 0.0
2017-Apr-18 04:59N 58°37' E 016°15'0 0.0
2017-Apr-18 04:29N 58°37' E 016°15'0 0.0
2017-Apr-18 03:59N 58°37' E 016°15'0 0.0
2017-Apr-18 03:29N 58°37' E 016°15'0 0.0
2017-Apr-18 02:59N 58°37' E 016°15'0 0.0
2017-Apr-18 02:29N 58°37' E 016°15'0 0.0
2017-Apr-18 01:59N 58°37' E 016°15'0 0.0
2017-Apr-18 01:29N 58°37' E 016°15'0 0.0
2017-Apr-18 00:59N 58°37' E 016°15'0 0.0
2017-Apr-18 00:29N 58°37' E 016°15'0 0.0
2017-Apr-17 23:59N 58°37' E 016°15'0 0.0
2017-Apr-17 23:29N 58°37' E 016°15'0 0.0
2017-Apr-17 22:59N 58°37' E 016°15'0 0.0
2017-Apr-17 22:29N 58°37' E 016°15'0 0.0
2017-Apr-17 21:59N 58°37' E 016°15'0 0.0
2017-Apr-17 21:29N 58°37' E 016°15'0 0.0
2017-Apr-17 20:59N 58°37' E 016°15'0 0.0
2017-Apr-17 20:29N 58°37' E 016°15'0 0.0
2017-Apr-17 19:59N 58°37' E 016°15'0 0.0
2017-Apr-17 19:29N 58°37' E 016°15'0 0.0
2017-Apr-17 18:59N 58°37' E 016°15'0 0.0
2017-Apr-17 18:29N 58°37' E 016°15'0 0.0
2017-Apr-17 17:59N 58°37' E 016°15'0 0.0
2017-Apr-17 17:29N 58°37' E 016°15'0 0.0
2017-Apr-17 16:59N 58°37' E 016°15'0 0.0
2017-Apr-17 16:29N 58°37' E 016°15'0 0.0
2017-Apr-17 15:59N 58°37' E 016°15'0 0.0
2017-Apr-17 15:29N 58°37' E 016°15'0 0.0
2017-Apr-17 14:59N 58°37' E 016°15'0 0.0
2017-Apr-17 14:29N 58°37' E 016°15'0 0.0
2017-Apr-17 13:29N 58°37' E 016°15'0 0.0
2017-Apr-17 12:59N 58°37' E 016°15'0 0.0
2017-Apr-17 12:29N 58°37' E 016°15'0 0.0
2017-Apr-17 11:59N 58°37' E 016°15'0 0.0
2017-Apr-17 11:29N 58°37' E 016°15'0 0.0
2017-Apr-17 10:59N 58°37' E 016°15'0 0.0
2017-Apr-17 10:29N 58°37' E 016°15'0 0.0
2017-Apr-17 09:56N 58°37' E 016°15'0 0.0
2017-Apr-17 09:29N 58°37' E 016°15'0 0.0
2017-Apr-17 08:59N 58°37' E 016°15'0 0.0
2017-Apr-17 08:29N 58°37' E 016°15'0 0.0
2017-Apr-17 07:59N 58°37' E 016°15'0 0.0
2017-Apr-17 07:29N 58°37' E 016°15'0 0.0
2017-Apr-17 06:59N 58°37' E 016°15'0 0.0
2017-Apr-17 06:29N 58°37' E 016°15'0 0.0
2017-Apr-17 05:59N 58°37' E 016°15'0 0.0
2017-Apr-17 05:29N 58°37' E 016°15'0 0.0
2017-Apr-17 04:59N 58°37' E 016°15'0 0.0
2017-Apr-17 04:29N 58°37' E 016°15'0 0.0
2017-Apr-17 03:59N 58°37' E 016°15'0 0.0
2017-Apr-17 03:28N 58°37' E 016°15'0 0.0
2017-Apr-17 02:58N 58°37' E 016°15'0 0.0
2017-Apr-17 02:28N 58°37' E 016°15'0 0.0
2017-Apr-17 01:58N 58°37' E 016°15'0 0.0
2017-Apr-17 01:28N 58°37' E 016°15'0 0.0
2017-Apr-17 00:58N 58°37' E 016°15'0 0.0
2017-Apr-17 00:28N 58°37' E 016°15'0 0.0
2017-Apr-16 23:58N 58°37' E 016°15'0 0.0
2017-Apr-16 23:27N 58°37' E 016°15'0 0.0
2017-Apr-16 23:00N 58°37' E 016°15'0 0.0
2017-Apr-16 22:30N 58°37' E 016°15'0 0.0
2017-Apr-16 22:00N 58°37' E 016°15'0 0.0
2017-Apr-16 21:30N 58°37' E 016°15'0 0.0
2017-Apr-16 21:00N 58°37' E 016°15'0 0.0
2017-Apr-16 20:30N 58°37' E 016°15'0 0.0
2017-Apr-16 20:00N 58°37' E 016°15'0 0.0
2017-Apr-16 19:30N 58°37' E 016°15'0 0.0
2017-Apr-16 19:00N 58°37' E 016°15'0 0.0
2017-Apr-16 18:30N 58°37' E 016°15'0 0.0
2017-Apr-16 18:00N 58°37' E 016°15'0 0.0
2017-Apr-16 17:30N 58°37' E 016°15'0 0.0
2017-Apr-16 17:00N 58°37' E 016°15'0 0.0
2017-Apr-16 16:30N 58°37' E 016°15'0 0.0
2017-Apr-16 16:00N 58°37' E 016°15'0 0.0
2017-Apr-16 15:30N 58°37' E 016°15'0 0.0
2017-Apr-16 15:00N 58°37' E 016°15'0 0.0
2017-Apr-16 14:00N 58°37' E 016°15'0 0.0
2017-Apr-16 13:29N 58°37' E 016°15'0 0.0
2017-Apr-16 12:58N 58°37' E 016°15'0 0.0
2017-Apr-16 12:30N 58°37' E 016°15'0 0.0
2017-Apr-16 12:00N 58°37' E 016°15'0 0.0
2017-Apr-16 11:30N 58°37' E 016°15'0 0.0
2017-Apr-16 10:59N 58°37' E 016°15'0 0.0
2017-Apr-16 10:28N 58°37' E 016°15'0 0.0
2017-Apr-16 09:58N 58°37' E 016°15'0 0.0
2017-Apr-16 09:30N 58°37' E 016°15'0 0.0
2017-Apr-16 09:00N 58°37' E 016°15'0 0.0
2017-Apr-16 08:30N 58°37' E 016°15'0 0.0
2017-Apr-16 08:00N 58°37' E 016°15'0 0.0
2017-Apr-16 07:30N 58°37' E 016°15'0 0.0
2017-Apr-16 07:00N 58°37' E 016°15'0 0.0
2017-Apr-16 06:30N 58°37' E 016°15'  
Track history (hours):
 
Tides and Currents Weather Stations Pressure Air Temp Water Temp Dewpoint Dewpoint Depression Visibility Wind Speed Wind Dir Waves Ship Positions

Andesborg

Last reported at 2017-Apr-26 06:18 UTC. Time now 2017-Apr-30 07:06 UTC.
Position N 49°44' W 003°38'.

Length 142 m; draft 6.2 m.

Type: Ship. MMSI: 246797000.

Date/timePositionNaut miles runAvg speedWind from/ knotsBaromVisibWave heightAir tempDewpointWater temp
2017-Apr-26 06:18N 49°44' W 003°38'412.5
2017-Apr-26 06:01N 49°46' W 003°33'612.4
2017-Apr-26 05:30N 49°50' W 003°25'612.6
2017-Apr-26 05:00N 49°54' W 003°18'612.6
2017-Apr-26 04:30N 49°56' W 003°09'713.1
2017-Apr-26 04:00N 49°58' W 002°59'713.9
2017-Apr-26 03:30N 50°01' W 002°49'8916.2
2017-Apr-25 22:00N 50°26' W 000°36'612.3
2017-Apr-25 21:29N 50°28' W 000°26'612.3
2017-Apr-25 20:58N 50°29' W 000°17'511.7
2017-Apr-25 20:30N 50°30' W 000°08'611.7
2017-Apr-25 20:00N 50°31' E 000°01'611.8
2017-Apr-25 19:30N 50°33' E 000°10'612.1
2017-Apr-25 19:00N 50°34' E 000°19'612.8
2017-Apr-25 18:30N 50°36' E 000°28'713.6
2017-Apr-25 18:00N 50°39' E 000°38'714.8
2017-Apr-25 17:30N 50°43' E 000°48'1015.6
2017-Apr-25 16:51N 50°49' E 001°01'615.7
2017-Apr-25 16:30N 50°53' E 001°08'815.6
2017-Apr-25 16:00N 50°58' E 001°16'815.3
2017-Apr-25 15:30N 51°03' E 001°25'815.2
2017-Apr-25 15:00N 51°08' E 001°35'714.0
2017-Apr-25 14:30N 51°12' E 001°43'1313.2
2017-Apr-25 13:30N 51°24' E 001°54'612.6
2017-Apr-25 13:00N 51°29' E 001°60'712.6
2017-Apr-25 12:29N 51°34' E 002°07'712.8
2017-Apr-25 11:56N 51°39' E 002°15'11014.0
2017-Apr-25 04:06N 53°03' E 004°11'111.7
2017-Apr-25 04:01N 53°03' E 004°13'1011.5
2017-Apr-25 03:09N 53°10' E 004°25'211.6
2017-Apr-25 02:59N 53°12' E 004°26'14012.9
2017-Apr-24 16:10N 54°01' E 008°07'214.6
2017-Apr-24 16:00N 54°01' E 008°11'714.3
2017-Apr-24 15:30N 53°59' E 008°23'817.0
2017-Apr-24 15:00N 53°57' E 008°37'917.1
2017-Apr-24 14:31N 53°51' E 008°46'1414.4
2017-Apr-24 13:30N 53°53' E 009°11'611.9
2017-Apr-24 13:00N 53°51' E 009°20'713.3
2017-Apr-24 12:30N 53°45' E 009°25'612.6
2017-Apr-24 12:00N 53°39' E 009°31'612.7
2017-Apr-24 11:30N 53°35' E 009°38'510.7
2017-Apr-24 11:00N 53°34' E 009°47'4 7.7
2017-Apr-24 10:30N 53°33' E 009°53'4 7.7
2017-Apr-24 10:00N 53°32' E 009°59'0 0.2
2017-Apr-24 09:29N 53°32' E 009°59'0 0.0
2017-Apr-24 08:59N 53°32' E 009°59'0 0.0
2017-Apr-24 08:29N 53°32' E 009°59'0 0.0
2017-Apr-24 07:59N 53°32' E 009°59'0 0.0
2017-Apr-24 07:29N 53°32' E 009°59'0 0.0
2017-Apr-24 06:59N 53°32' E 009°59'0 0.0
2017-Apr-24 06:29N 53°32' E 009°59'0 0.0
2017-Apr-24 05:59N 53°32' E 009°59'0 0.0
2017-Apr-24 05:29N 53°32' E 009°59'0 0.0
2017-Apr-24 04:59N 53°32' E 009°59'0 0.0
2017-Apr-24 04:29N 53°32' E 009°59'0 0.0
2017-Apr-24 03:59N 53°32' E 009°59'0 0.0
2017-Apr-24 03:29N 53°32' E 009°59'0 0.0
2017-Apr-24 02:59N 53°32' E 009°59'0 0.0
2017-Apr-24 02:29N 53°32' E 009°59'0 0.0
2017-Apr-24 01:59N 53°32' E 009°59'0 0.0
2017-Apr-24 01:29N 53°32' E 009°59'0 0.0
2017-Apr-24 00:59N 53°32' E 009°59'0 0.0
2017-Apr-24 00:29N 53°32' E 009°59'0 0.0
2017-Apr-23 23:59N 53°32' E 009°59'0 0.0
2017-Apr-23 23:29N 53°32' E 009°59'0 0.0
2017-Apr-23 22:59N 53°32' E 009°59'0 0.0
2017-Apr-23 22:29N 53°32' E 009°59'0 0.0
2017-Apr-23 21:59N 53°32' E 009°59'0 0.0
2017-Apr-23 21:29N 53°32' E 009°59'0 0.0
2017-Apr-23 20:59N 53°32' E 009°59'0 0.0
2017-Apr-23 20:29N 53°32' E 009°59'0 0.0
2017-Apr-23 19:59N 53°32' E 009°59'0 0.0
2017-Apr-23 19:29N 53°32' E 009°59'0 0.0
2017-Apr-23 18:59N 53°32' E 009°59'0 0.0
2017-Apr-23 18:29N 53°32' E 009°59'0 0.0
2017-Apr-23 17:59N 53°32' E 009°59'0 0.0
2017-Apr-23 17:29N 53°32' E 009°59'0 0.0
2017-Apr-23 16:59N 53°32' E 009°59'0 0.0
2017-Apr-23 16:29N 53°32' E 009°59'0 0.0
2017-Apr-23 16:00N 53°32' E 009°59'2 4.1
2017-Apr-23 15:31N 53°32' E 009°56'3 6.0
2017-Apr-23 15:00N 53°30' E 009°59'1 0.6
2017-Apr-23 14:01N 53°29' E 009°59'0 0.0
2017-Apr-23 13:31N 53°29' E 009°59'0 0.0
2017-Apr-23 12:58N 53°29' E 009°59'0 0.0
2017-Apr-23 12:28N 53°29' E 009°59'0 0.0
2017-Apr-23 11:58N 53°29' E 009°59'0 0.0
2017-Apr-23 11:28N 53°29' E 009°59'0 0.0
2017-Apr-23 10:58N 53°29' E 009°59'0 0.0
2017-Apr-23 10:28N 53°29' E 009°59'0 0.0
2017-Apr-23 09:58N 53°29' E 009°59'0 0.0
2017-Apr-23 09:28N 53°29' E 009°59'0 0.0
2017-Apr-23 08:58N 53°29' E 009°59'0 0.0
2017-Apr-23 08:28N 53°29' E 009°59'0 0.0
2017-Apr-23 07:55N 53°29' E 009°59'0 0.0
2017-Apr-23 07:31N 53°29' E 009°59'0 0.0
2017-Apr-23 06:58N 53°29' E 009°59'0 0.0
2017-Apr-23 06:31N 53°29' E 009°59'0 0.0
2017-Apr-23 05:58N 53°29' E 009°59'0 0.0
2017-Apr-23 05:28N 53°29' E 009°59'0 0.0
2017-Apr-23 05:01N 53°29' E 009°59'0 0.0
2017-Apr-23 04:28N 53°29' E 009°59'0 0.0
2017-Apr-23 04:01N 53°29' E 009°59'0 0.0
2017-Apr-23 03:28N 53°29' E 009°59'0 0.0
2017-Apr-23 03:00N 53°29' E 009°59'1 2.1
2017-Apr-23 02:30N 53°30' E 009°58'3 6.1
2017-Apr-23 02:00N 53°32' E 009°55'5 9.3
2017-Apr-23 01:30N 53°33' E 009°47'612.9
2017-Apr-23 01:01N 53°35' E 009°37'713.4
2017-Apr-23 00:31N 53°41' E 009°30'714.1
2017-Apr-23 00:00N 53°47' E 009°23'714.7
2017-Apr-22 23:30N 53°52' E 009°16'4 8.6
2017-Apr-22 23:00N 53°54' E 009°09'0 0.0
2017-Apr-22 22:30N 53°54' E 009°09'1 2.0
2017-Apr-22 22:01N 53°54' E 009°10'3 6.2
2017-Apr-22 21:30N 53°57' E 009°14'2 4.7
2017-Apr-22 21:00N 53°58' E 009°16'4 7.7
2017-Apr-22 20:30N 54°02' E 009°18'7 7.8
2017-Apr-22 19:39N 54°09' E 009°21'1 5.1
2017-Apr-22 19:27N 54°09' E 009°22'3 7.3
2017-Apr-22 19:00N 54°11' E 009°27'39 4.9
2017-Apr-22 11:07N 54°32' E 010°22'2 4.2
2017-Apr-22 10:43N 54°33' E 010°25'0 1.6
2017-Apr-22 10:27N 54°33' E 010°24'2 3.5
2017-Apr-22 09:59N 54°33' E 010°27'2 3.5
2017-Apr-22 09:30N 54°34' E 010°30'2 3.5
2017-Apr-22 09:00N 54°34' E 010°33'2 3.9
2017-Apr-22 08:30N 54°35' E 010°36'3 5.1
2017-Apr-22 08:01N 54°35' E 010°40'4 7.3
2017-Apr-22 07:30N 54°35' E 010°47'611.4
2017-Apr-22 07:01N 54°36' E 010°57'611.9
2017-Apr-22 06:31N 54°36' E 011°07'611.8
2017-Apr-22 06:00N 54°34' E 011°17'611.3
2017-Apr-22 05:30N 54°32' E 011°25'611.5
2017-Apr-22 05:00N 54°30' E 011°34'1111.3
2017-Apr-22 04:01N 54°26' E 011°53'011.6
2017-Apr-22 04:00N 54°26' E 011°53'611.6
2017-Apr-22 03:30N 54°27' E 012°03'510.6
2017-Apr-22 03:00N 54°29' E 012°11'713.3
2017-Apr-22 02:30N 54°36' E 012°14'612.0
2017-Apr-22 02:01N 54°40' E 012°21'4812.1
2017-Apr-21 22:01N 54°60' E 013°38'112.8
2017-Apr-21 21:58N 55°00' E 013°39'612.7
2017-Apr-21 21:27N 55°03' E 013°49'511.8
2017-Apr-21 21:01N 55°03' E 013°58'612.1
2017-Apr-21 20:30N 55°06' E 014°08'612.8
2017-Apr-21 20:00N 55°11' E 014°14'713.0
2017-Apr-21 19:30N 55°16' E 014°21'713.6
2017-Apr-21 19:00N 55°22' E 014°28'713.5
2017-Apr-21 18:31N 55°27' E 014°36'713.0
2017-Apr-21 18:00N 55°30' E 014°46'713.4
2017-Apr-21 17:30N 55°33' E 014°56'713.3
2017-Apr-21 17:00N 55°36' E 015°07'713.4
2017-Apr-21 16:30N 55°40' E 015°17'19112.6
2017-Apr-21 01:26N 58°36' E 017°31'511.6
2017-Apr-21 01:00N 58°37' E 017°22'714.9
2017-Apr-21 00:30N 58°38' E 017°08'815.3
2017-Apr-21 00:00N 58°36' E 016°54'815.1
2017-Apr-20 23:31N 58°38' E 016°39'612.1
2017-Apr-20 23:01N 58°39' E 016°28'612.3
2017-Apr-20 22:30N 58°37' E 016°17'1 1.8
2017-Apr-20 21:59N 58°37' E 016°15'0 0.0
2017-Apr-20 21:29N 58°37' E 016°15'0 0.0
2017-Apr-20 20:59N 58°37' E 016°15'0 0.0
2017-Apr-20 20:29N 58°37' E 016°15'0 0.0
2017-Apr-20 19:59N 58°37' E 016°15'0 0.0
2017-Apr-20 19:29N 58°37' E 016°15'0 0.0
2017-Apr-20 18:59N 58°37' E 016°15'0 0.0
2017-Apr-20 18:29N 58°37' E 016°15'0 0.0
2017-Apr-20 17:59N 58°37' E 016°15'0 0.0
2017-Apr-20 17:29N 58°37' E 016°15'0 0.0
2017-Apr-20 16:59N 58°37' E 016°15'0 0.0
2017-Apr-20 16:29N 58°37' E 016°15'0 0.0
2017-Apr-20 15:59N 58°37' E 016°15'0 0.0
2017-Apr-20 15:29N 58°37' E 016°15'0 0.0
2017-Apr-20 14:59N 58°37' E 016°15'0 0.0
2017-Apr-20 14:29N 58°37' E 016°15'0 0.0
2017-Apr-20 13:29N 58°37' E 016°15'0 0.0
2017-Apr-20 12:59N 58°37' E 016°15'0 0.0
2017-Apr-20 12:29N 58°37' E 016°15'0 0.0
2017-Apr-20 11:59N 58°37' E 016°15'0 0.0
2017-Apr-20 11:29N 58°37' E 016°15'0 0.0
2017-Apr-20 10:58N 58°37' E 016°15'0 0.0
2017-Apr-20 10:30N 58°37' E 016°15'0 0.0
2017-Apr-20 10:00N 58°37' E 016°15'0 0.0
2017-Apr-20 09:29N 58°37' E 016°15'0 0.0
2017-Apr-20 08:59N 58°37' E 016°15'0 0.0
2017-Apr-20 08:29N 58°37' E 016°15'0 0.0
2017-Apr-20 07:59N 58°37' E 016°15'0 0.0
2017-Apr-20 07:29N 58°37' E 016°15'0 0.0
2017-Apr-20 06:59N 58°37' E 016°15'0 0.0
2017-Apr-20 06:29N 58°37' E 016°15'0 0.0
2017-Apr-20 05:59N 58°37' E 016°15'0 0.0
2017-Apr-20 05:29N 58°37' E 016°15'0 0.0
2017-Apr-20 04:59N 58°37' E 016°15'0 0.0
2017-Apr-20 04:29N 58°37' E 016°15'0 0.0
2017-Apr-20 03:59N 58°37' E 016°15'0 0.0
2017-Apr-20 03:28N 58°37' E 016°15'0 0.0
2017-Apr-20 02:58N 58°37' E 016°15'0 0.0
2017-Apr-20 02:28N 58°37' E 016°15'0 0.0
2017-Apr-20 01:58N 58°37' E 016°15'0 0.0
2017-Apr-20 01:28N 58°37' E 016°15'0 0.0
2017-Apr-20 00:58N 58°37' E 016°15'0 0.0
2017-Apr-20 00:28N 58°37' E 016°15'0 0.0
2017-Apr-19 23:58N 58°37' E 016°15'0 0.0
2017-Apr-19 23:28N 58°37' E 016°15'0 0.0
2017-Apr-19 22:58N 58°37' E 016°15'0 0.0
2017-Apr-19 22:28N 58°37' E 016°15'0 0.0
2017-Apr-19 22:00N 58°37' E 016°15'0 0.0
2017-Apr-19 21:30N 58°37' E 016°15'0 0.0
2017-Apr-19 20:59N 58°37' E 016°15'0 0.0
2017-Apr-19 20:31N 58°37' E 016°15'0 0.0
2017-Apr-19 20:00N 58°37' E 016°15'0 0.0
2017-Apr-19 19:30N 58°37' E 016°15'0 0.0
2017-Apr-19 19:00N 58°37' E 016°15'0 0.0
2017-Apr-19 18:30N 58°37' E 016°15'0 0.0
2017-Apr-19 18:00N 58°37' E 016°15'0 0.0
2017-Apr-19 17:29N 58°37' E 016°15'0 0.0
2017-Apr-19 16:59N 58°37' E 016°15'0 0.0
2017-Apr-19 16:29N 58°37' E 016°15'0 0.0
2017-Apr-19 15:59N 58°37' E 016°15'0 0.0
2017-Apr-19 15:29N 58°37' E 016°15'0 0.0
2017-Apr-19 14:59N 58°37' E 016°15'0 0.0
2017-Apr-19 14:29N 58°37' E 016°15'0 0.0
2017-Apr-19 13:25N 58°37' E 016°15'0 0.0
2017-Apr-19 12:58N 58°37' E 016°15'0 0.0
2017-Apr-19 12:28N 58°37' E 016°15'0 0.0
2017-Apr-19 11:58N 58°37' E 016°15'0 0.0
2017-Apr-19 11:28N 58°37' E 016°15'0 0.0
2017-Apr-19 10:58N 58°37' E 016°15'0 0.0
2017-Apr-19 10:28N 58°37' E 016°15'0 0.0
2017-Apr-19 09:58N 58°37' E 016°15'0 0.0
2017-Apr-19 09:28N 58°37' E 016°15'0 0.0
2017-Apr-19 08:58N 58°37' E 016°15'0 0.0
2017-Apr-19 08:28N 58°37' E 016°15'0 0.0
2017-Apr-19 07:57N 58°37' E 016°15'0 0.0
2017-Apr-19 07:30N 58°37' E 016°15'0 0.0
2017-Apr-19 07:00N 58°37' E 016°15'0 0.0
2017-Apr-19 06:30N 58°37' E 016°15'0 0.0
2017-Apr-19 06:00N 58°37' E 016°15'0 0.0
2017-Apr-19 05:30N 58°37' E 016°15'0 0.0
2017-Apr-19 05:00N 58°37' E 016°15'0 0.0
2017-Apr-19 04:30N 58°37' E 016°15'0 0.0
2017-Apr-19 04:00N 58°37' E 016°15'0 0.0
2017-Apr-19 03:29N 58°37' E 016°15'0 0.0
2017-Apr-19 02:59N 58°37' E 016°15'0 0.0
2017-Apr-19 02:29N 58°37' E 016°15'0 0.0
2017-Apr-19 01:59N 58°37' E 016°15'0 0.0
2017-Apr-19 01:29N 58°37' E 016°15'0 0.0
2017-Apr-19 00:59N 58°37' E 016°15'0 0.0
2017-Apr-19 00:29N 58°37' E 016°15'0 0.0
2017-Apr-18 23:59N 58°37' E 016°15'0 0.0
2017-Apr-18 23:29N 58°37' E 016°15'0 0.0
2017-Apr-18 22:59N 58°37' E 016°15'0 0.0
2017-Apr-18 22:30N 58°37' E 016°15'0 0.0
2017-Apr-18 21:58N 58°37' E 016°15'0 0.0
2017-Apr-18 21:28N 58°37' E 016°15'0 0.0
2017-Apr-18 20:58N 58°37' E 016°15'0 0.0
2017-Apr-18 20:28N 58°37' E 016°15'0 0.0
2017-Apr-18 19:58N 58°37' E 016°15'0 0.0
2017-Apr-18 19:28N 58°37' E 016°15'0 0.0
2017-Apr-18 18:58N 58°37' E 016°15'0 0.0
2017-Apr-18 18:28N 58°37' E 016°15'0 0.0
2017-Apr-18 17:58N 58°37' E 016°15'0 0.0
2017-Apr-18 17:28N 58°37' E 016°15'0 0.0
2017-Apr-18 16:58N 58°37' E 016°15'0 0.0
2017-Apr-18 16:28N 58°37' E 016°15'0 0.0
2017-Apr-18 15:58N 58°37' E 016°15'0 0.0
2017-Apr-18 15:28N 58°37' E 016°15'0 0.0
2017-Apr-18 15:00N 58°37' E 016°15'0 0.0
2017-Apr-18 14:30N 58°37' E 016°15'0 0.0
2017-Apr-18 13:30N 58°37' E 016°15'0 0.0
2017-Apr-18 12:59N 58°37' E 016°15'0 0.0
2017-Apr-18 12:29N 58°37' E 016°15'0 0.0
2017-Apr-18 11:59N 58°37' E 016°15'0 0.0
2017-Apr-18 11:29N 58°37' E 016°15'0 0.0
2017-Apr-18 10:59N 58°37' E 016°15'0 0.0
2017-Apr-18 10:29N 58°37' E 016°15'0 0.0
2017-Apr-18 09:59N 58°37' E 016°15'0 0.0
2017-Apr-18 09:29N 58°37' E 016°15'0 0.0
2017-Apr-18 08:59N 58°37' E 016°15'0 0.0
2017-Apr-18 08:29N 58°37' E 016°15'0 0.0
2017-Apr-18 07:59N 58°37' E 016°15'0 0.0
2017-Apr-18 07:29N 58°37' E 016°15'0 0.0
2017-Apr-18 06:59N 58°37' E 016°15'0 0.0
2017-Apr-18 06:29N 58°37' E 016°15'0 0.0
2017-Apr-18 05:59N 58°37' E 016°15'0 0.0
2017-Apr-18 05:23N 58°37' E 016°15'0 0.0
2017-Apr-18 04:59N 58°37' E 016°15'0 0.0
2017-Apr-18 04:29N 58°37' E 016°15'0 0.0
2017-Apr-18 03:59N 58°37' E 016°15'0 0.0
2017-Apr-18 03:29N 58°37' E 016°15'0 0.0
2017-Apr-18 02:59N 58°37' E 016°15'0 0.0
2017-Apr-18 02:29N 58°37' E 016°15'0 0.0
2017-Apr-18 01:59N 58°37' E 016°15'0 0.0
2017-Apr-18 01:29N 58°37' E 016°15'0 0.0
2017-Apr-18 00:59N 58°37' E 016°15'0 0.0
2017-Apr-18 00:29N 58°37' E 016°15'0 0.0
2017-Apr-17 23:59N 58°37' E 016°15'0 0.0
2017-Apr-17 23:29N 58°37' E 016°15'0 0.0
2017-Apr-17 22:59N 58°37' E 016°15'0 0.0
2017-Apr-17 22:29N 58°37' E 016°15'0 0.0
2017-Apr-17 21:59N 58°37' E 016°15'0 0.0
2017-Apr-17 21:29N 58°37' E 016°15'0 0.0
2017-Apr-17 20:59N 58°37' E 016°15'0 0.0
2017-Apr-17 20:29N 58°37' E 016°15'0 0.0
2017-Apr-17 19:59N 58°37' E 016°15'0 0.0
2017-Apr-17 19:29N 58°37' E 016°15'0 0.0
2017-Apr-17 18:59N 58°37' E 016°15'0 0.0
2017-Apr-17 18:29N 58°37' E 016°15'0 0.0
2017-Apr-17 17:59N 58°37' E 016°15'0 0.0
2017-Apr-17 17:29N 58°37' E 016°15'0 0.0
2017-Apr-17 16:59N 58°37' E 016°15'0 0.0
2017-Apr-17 16:29N 58°37' E 016°15'0 0.0
2017-Apr-17 15:59N 58°37' E 016°15'0 0.0
2017-Apr-17 15:29N 58°37' E 016°15'0 0.0
2017-Apr-17 14:59N 58°37' E 016°15'0 0.0
2017-Apr-17 14:29N 58°37' E 016°15'0 0.0
2017-Apr-17 13:29N 58°37' E 016°15'0 0.0
2017-Apr-17 12:59N 58°37' E 016°15'0 0.0
2017-Apr-17 12:29N 58°37' E 016°15'0 0.0
2017-Apr-17 11:59N 58°37' E 016°15'0 0.0
2017-Apr-17 11:29N 58°37' E 016°15'0 0.0
2017-Apr-17 10:59N 58°37' E 016°15'0 0.0
2017-Apr-17 10:29N 58°37' E 016°15'0 0.0
2017-Apr-17 09:56N 58°37' E 016°15'0 0.0
2017-Apr-17 09:29N 58°37' E 016°15'0 0.0
2017-Apr-17 08:59N 58°37' E 016°15'0 0.0
2017-Apr-17 08:29N 58°37' E 016°15'0 0.0
2017-Apr-17 07:59N 58°37' E 016°15'0 0.0
2017-Apr-17 07:29N 58°37' E 016°15'0 0.0
2017-Apr-17 06:59N 58°37' E 016°15'0 0.0
2017-Apr-17 06:29N 58°37' E 016°15'0 0.0
2017-Apr-17 05:59N 58°37' E 016°15'0 0.0
2017-Apr-17 05:29N 58°37' E 016°15'0 0.0
2017-Apr-17 04:59N 58°37' E 016°15'0 0.0
2017-Apr-17 04:29N 58°37' E 016°15'0 0.0
2017-Apr-17 03:59N 58°37' E 016°15'0 0.0
2017-Apr-17 03:28N 58°37' E 016°15'0 0.0
2017-Apr-17 02:58N 58°37' E 016°15'0 0.0
2017-Apr-17 02:28N 58°37' E 016°15'0 0.0
2017-Apr-17 01:58N 58°37' E 016°15'0 0.0
2017-Apr-17 01:28N 58°37' E 016°15'0 0.0
2017-Apr-17 00:58N 58°37' E 016°15'0 0.0
2017-Apr-17 00:28N 58°37' E 016°15'0 0.0
2017-Apr-16 23:58N 58°37' E 016°15'0 0.0
2017-Apr-16 23:27N 58°37' E 016°15'0 0.0
2017-Apr-16 23:00N 58°37' E 016°15'0 0.0
2017-Apr-16 22:30N 58°37' E 016°15'0 0.0
2017-Apr-16 22:00N 58°37' E 016°15'0 0.0
2017-Apr-16 21:30N 58°37' E 016°15'0 0.0
2017-Apr-16 21:00N 58°37' E 016°15'0 0.0
2017-Apr-16 20:30N 58°37' E 016°15'0 0.0
2017-Apr-16 20:00N 58°37' E 016°15'0 0.0
2017-Apr-16 19:30N 58°37' E 016°15'0 0.0
2017-Apr-16 19:00N 58°37' E 016°15'0 0.0
2017-Apr-16 18:30N 58°37' E 016°15'0 0.0
2017-Apr-16 18:00N 58°37' E 016°15'0 0.0
2017-Apr-16 17:30N 58°37' E 016°15'0 0.0
2017-Apr-16 17:00N 58°37' E 016°15'0 0.0
2017-Apr-16 16:30N 58°37' E 016°15'0 0.0
2017-Apr-16 16:00N 58°37' E 016°15'0 0.0
2017-Apr-16 15:30N 58°37' E 016°15'0 0.0
2017-Apr-16 15:00N 58°37' E 016°15'0 0.0
2017-Apr-16 14:00N 58°37' E 016°15'0 0.0
2017-Apr-16 13:29N 58°37' E 016°15'0 0.0
2017-Apr-16 12:58N 58°37' E 016°15'0 0.0
2017-Apr-16 12:30N 58°37' E 016°15'0 0.0
2017-Apr-16 12:00N 58°37' E 016°15'0 0.0
2017-Apr-16 11:30N 58°37' E 016°15'0 0.0
2017-Apr-16 10:59N 58°37' E 016°15'0 0.0
2017-Apr-16 10:28N 58°37' E 016°15'0 0.0
2017-Apr-16 09:58N 58°37' E 016°15'0 0.0
2017-Apr-16 09:30N 58°37' E 016°15'0 0.0
2017-Apr-16 09:00N 58°37' E 016°15'0 0.0
2017-Apr-16 08:30N 58°37' E 016°15'0 0.0
2017-Apr-16 08:00N 58°37' E 016°15'0 0.0
2017-Apr-16 07:30N 58°37' E 016°15'0 0.0
2017-Apr-16 07:00N 58°37' E 016°15'0 0.0
2017-Apr-16 06:30N 58°37' E 016°15'  

Dump ship's entire track history